The Florida Keys Marathon Airport
KMTH : now visible

Airfield :











YOU CAN JOIN US ON...

 
LOGIN :

Register | Disclaimer

   EN    FR    IT 

 









Legend :    VFR   Marginal VFR   IFR   Intensive IFR   Very Intensive IFR
Visi :
Ceiling :
>= 8 km
>= 3000ft
5 to 8 km
1000 to 3000 ft
1500m to 5 km
500 to 1000 ft
800 to 1500m
200 to 500 ft
< 800m
< 200 ft
Symbols :   Thunderstorms  Fog  Heavy snow  Heavy precipitations  Wind > 20 kt







- Airport Elevation : 5 ft


KMTH - The Florida Keys Marathon

CURRENT METAR :
  • 211753Z AUTO 21007KT 10SM SCT027 SCT040 BKN060 28/25 A3006 RMK AO2 RAE1657 SLP178 P0000 60009 T02830250 10322 20267 58006

EXPIRED METARs :
  • 211744Z AUTO 18007KT 10SM SCT025 BKN031 OVC060 27/24 A3006 RMK AO2 RAE1657 P0000 T02720244
  • 211653Z AUTO VRB04KT 7SM -RA BKN044 OVC070 27/24 A3007 RMK AO2 RAB30 SLP181 P0007 T02720244
  • 211637Z AUTO 00000KT 1 3/4SM +RA FEW027 SCT045 BKN070 28/24 A3007 RMK AO2 RAB30 P0005 T02780244
  • 211553Z AUTO 12006KT 10SM FEW038 SCT048 BKN060 31/25 A3008 RMK AO2 RAB30E47 SLP184 P0002 T03110250
  • 211453Z AUTO 14005KT 10SM CLR 31/24 A3008 RMK AO2 SLP184 T03110244 51013

TAF KMTH
Valid from the 21 at 18:00 until the 22 at 18:00 UTC


211729Z 2118/2218 10005KT P6SM VCSH SCT025
No reported NOTAMs for that airfield.



MET'MAP, your aeronautical weather chart ! - Copyright ORBIFLY December 2007 - Disclaimer

ORBIFLY MET'MAP TEAM :

Programming & Development : Alexandra Zaïnal
Concept & Development : Baudouin d'Aumeries
Co-Development & Prog : Marc-Olivier Méhu
Technical & hardware support : Manuel Goepfert

Contact : metmap@orbifly.com




SOURCES & CREDITS :

   NOAA       Earth
Advisory